Time;durP1;ratioP1;P1;durP2;ratioP2;P2;SDS_P1;SDS_P2;PMS_P1;PMS_P2;Temp;Humidity;BMP_temperature;BMP_pressure;BME280_temperature;BME280_humidity;BME280_pressure;Samples;Min_cycle;Max_cycle;Signal;HPM_P1;HPM_P2
2022/12/03 00:00:57;;;;;;;;;;;;;;;21.61;38.30;95796.00;6118554;19;1678;-63
2022/12/03 00:03:03;;;;;;;;;;;;;;;21.57;38.40;95792.91;6117900;19;2131;-62
2022/12/03 00:05:07;;;;;;;;;;;;;;;21.59;38.28;95798.84;6119515;19;1874;-59
2022/12/03 00:07:10;;;;;;;;;;;;;;;21.59;38.83;95796.19;6117241;19;1936;-63
2022/12/03 00:09:14;;;;;;;;;;;;;;;21.58;39.33;95802.56;6101964;19;2017;-61
2022/12/03 00:11:17;;;;;;;;;;;;;;;21.61;39.23;95804.84;6119565;19;1851;-60
2022/12/03 00:13:20;;;;;;;;;;;;;;;21.57;39.41;95811.63;6120935;19;1950;-61
2022/12/03 00:15:23;;;;;;;;;;;;;;;;;;6119675;19;1903;-61
2022/12/03 00:17:26;;;;;;;;;;;;;;;21.61;39.18;95817.41;6119367;19;2088;-62
2022/12/03 00:19:32;;;;;;;;;;;;;;;21.55;39.20;95807.50;6099095;19;1988;-63
2022/12/03 00:21:36;;;;;;;;;;;;;;;21.60;39.20;95813.09;6118786;19;1832;-63
2022/12/03 00:23:39;;;;;;;;;;;;;;;21.60;38.72;95818.44;6115259;19;1871;-61
2022/12/03 00:25:42;;;;;;;;;;;;;;;21.56;39.53;95820.66;6118477;19;1922;-62
2022/12/03 00:27:45;;;;;;;;;;;;;;;21.55;39.25;95812.84;6119272;19;2127;-63
2022/12/03 00:29:49;;;;;;;;;;;;;;;21.57;39.17;95821.47;6119065;19;1689;-61
2022/12/03 00:31:52;;;;;;;;;;;;;;;21.60;39.13;95815.75;6093344;19;1907;-62
2022/12/03 00:33:55;;;;;;;;;;;;;;;21.56;38.96;95817.97;6119688;19;1900;-61
2022/12/03 00:36:01;;;;;;;;;;;;;;;21.60;39.46;95821.94;6121150;19;2088;-61
2022/12/03 00:38:05;;;;;;;;;;;;;;;21.58;39.16;95823.97;6119428;19;2034;-61
2022/12/03 00:40:08;;;;;;;;;;;;;;;;;;6117609;19;1542;-61
2022/12/03 00:42:11;;;;;;;;;;;;;;;21.59;39.36;95827.47;6108822;19;1964;-60
2022/12/03 00:44:14;;;;;;;;;;;;;;;21.55;39.59;95828.88;6106053;19;1922;-61
2022/12/03 00:46:17;;;;;;;;;;;;;;;21.57;39.11;95827.69;6117758;19;2135;-63
2022/12/03 00:48:21;;;;;;;;;;;;;;;21.54;39.25;95836.09;6120994;19;1828;-61
2022/12/03 00:50:24;;;;;;;;;;;;;;;21.58;39.60;95842.69;6117674;19;2021;-63
2022/12/03 00:52:30;;;;;;;;;;;;;;;21.64;39.41;95838.41;6120179;19;2236;-61
2022/12/03 00:54:33;;;;;;;;;;;;;;;21.61;39.15;95838.78;6092076;19;1830;-62
2022/12/03 00:56:37;;;;;;;;;;;;;;;21.63;39.12;95842.09;6117750;19;1911;-61
2022/12/03 00:58:40;;;;;;;;;;;;;;;21.63;39.32;95847.44;6119515;19;1901;-61
2022/12/03 01:00:43;;;;;;;;;;;;;;;21.67;39.18;95852.19;6118611;19;1922;-61
2022/12/03 01:02:47;;;;;;;;;;;;;;;21.64;38.88;95854.44;6118075;19;2132;-60
2022/12/03 01:04:50;;;;;;;;;;;;;;;21.62;38.99;95851.13;6104856;19;1922;-62
2022/12/03 01:06:53;;;;;;;;;;;;;;;21.63;39.08;95853.63;6104261;19;1853;-61
2022/12/03 01:08:59;;;;;;;;;;;;;;;21.64;39.27;95851.75;6122715;19;2106;-61
2022/12/03 01:11:02;;;;;;;;;;;;;;;21.59;39.12;95860.38;6122022;19;2104;-63
2022/12/03 01:13:06;;;;;;;;;;;;;;;21.62;38.98;95856.47;6123981;19;2081;-62
2022/12/03 01:15:10;;;;;;;;;;;;;;;21.63;39.02;95853.63;6123573;19;1931;-60
2022/12/03 01:17:13;;;;;;;;;;;;;;;21.61;39.12;95860.19;6098768;19;2204;-60
2022/12/03 01:19:18;;;;;;;;;;;;;;;21.61;38.89;95857.50;6123833;19;2071;-62
2022/12/03 01:21:21;;;;;;;;;;;;;;;21.60;39.13;95867.38;6125035;19;1925;-59
2022/12/03 01:23:24;;;;;;;;;;;;;;;21.57;38.84;95864.25;6120966;19;1921;-61
2022/12/03 01:25:30;;;;;;;;;;;;;;;21.56;39.16;95868.78;6126507;19;1729;-61
2022/12/03 01:27:34;;;;;;;;;;;;;;;21.55;39.24;95869.81;6124611;19;1916;-63
2022/12/03 01:29:37;;;;;;;;;;;;;;;21.56;39.17;95874.13;6098468;19;2292;-61
2022/12/03 01:33:56;;;;;;;;;;;;;;;21.60;39.08;95871.91;6124283;19;1780;-63
2022/12/03 01:36:00;;;;;;;;;;;;;;;21.54;38.79;95870.84;6122984;19;2101;-61
2022/12/03 01:38:03;;;;;;;;;;;;;;;21.58;39.35;95876.63;6119841;19;1132;-63
2022/12/03 01:40:08;;;;;;;;;;;;;;;21.55;39.37;95869.81;6098031;19;1310;-61
2022/12/03 01:42:19;;;;;;;;;;;;;;;21.58;39.26;95872.09;6123246;19;1997;-61
2022/12/03 01:44:23;;;;;;;;;;;;;;;21.59;38.89;95868.41;6122843;19;2103;-61
2022/12/03 01:46:29;;;;;;;;;;;;;;;21.60;38.90;95869.25;6122957;19;1853;-63
2022/12/03 01:48:35;;;;;;;;;;;;;;;21.57;39.43;95864.25;6123723;19;1917;-62
2022/12/03 01:50:38;;;;;;;;;;;;;;;21.57;39.45;95869.63;6122905;19;1927;-61
2022/12/03 01:52:42;;;;;;;;;;;;;;;21.60;39.18;95864.72;6095346;19;2253;-60
2022/12/03 01:54:49;;;;;;;;;;;;;;;21.65;38.80;95870.31;6122994;19;2065;-61
2022/12/03 01:56:52;;;;;;;;;;;;;;;21.62;38.76;95867.19;6120989;19;1911;-62
2022/12/03 01:58:58;;;;;;;;;;;;;;;21.59;38.78;95875.59;6120366;19;1841;-62
2022/12/03 02:01:03;;;;;;;;;;;;;;;21.65;38.98;95872.13;6122395;19;2060;-59
2022/12/03 02:03:10;;;;;;;;;;;;;;;21.62;38.83;95861.84;6100234;19;2073;-64
2022/12/03 02:05:17;;;;;;;;;;;;;;;21.64;38.88;95860.63;6120183;19;1916;-60
2022/12/03 02:07:21;;;;;;;;;;;;;;;21.63;38.49;95861.66;6122410;19;1947;-61
2022/12/03 02:09:24;;;;;;;;;;;;;;;21.61;38.90;95857.50;6122681;19;1909;-60
2022/12/03 02:11:29;;;;;;;;;;;;;;;21.65;38.88;95866.78;6120389;19;2016;-60
2022/12/03 02:13:33;;;;;;;;;;;;;;;21.63;38.82;95863.50;6120108;19;2154;-60
2022/12/03 02:15:41;;;;;;;;;;;;;;;21.61;38.63;95866.34;6098362;19;2113;-61
2022/12/03 02:17:45;;;;;;;;;;;;;;;21.60;38.77;95863.91;6123034;19;2228;-60
2022/12/03 02:19:49;;;;;;;;;;;;;;;21.60;38.73;95861.22;6121463;19;2209;-60
2022/12/03 02:21:58;;;;;;;;;;;;;;;21.59;38.90;95857.69;6122054;19;2224;-61
2022/12/03 02:24:06;;;;;;;;;;;;;;;21.60;38.80;95862.03;6122811;19;1888;-60
2022/12/03 02:26:12;;;;;;;;;;;;;;;21.60;38.63;95864.72;6102367;19;1996;-65
2022/12/03 02:28:15;;;;;;;;;;;;;;;21.59;38.88;95868.41;6120350;19;1671;-60
2022/12/03 02:30:20;;;;;;;;;;;;;;;21.59;38.61;95862.22;6118712;19;2035;-61
2022/12/03 02:32:24;;;;;;;;;;;;;;;21.61;38.60;95860.19;6119525;19;2061;-60
2022/12/03 02:34:41;;;;;;;;;;;;;;;21.55;38.96;95859.13;6119426;19;2073;-60
2022/12/03 02:36:44;;;;;;;;;;;;;;;21.57;38.80;95851.75;6121252;19;2032;-61
2022/12/03 02:38:49;;;;;;;;;;;;;;;21.56;38.95;95860.78;6099567;19;2104;-61
2022/12/03 02:40:55;;;;;;;;;;;;;;;21.58;38.52;95861.41;6122486;19;2016;-62
2022/12/03 02:43:00;;;;;;;;;;;;;;;21.53;38.66;95857.66;6122082;19;1806;-59
2022/12/03 02:45:03;;;;;;;;;;;;;;;;;;6118154;19;1263;-61
2022/12/03 02:47:06;;;;;;;;;;;;;;;21.58;38.99;95849.88;6121559;19;1863;-60
2022/12/03 02:49:10;;;;;;;;;;;;;;;21.60;38.53;95854.03;6103144;19;1921;-65
2022/12/03 02:51:13;;;;;;;;;;;;;;;21.60;38.58;95862.03;6118125;19;1844;-62
2022/12/03 02:53:19;;;;;;;;;;;;;;;21.61;38.68;95861.00;6121814;19;2105;-60
2022/12/03 02:55:22;;;;;;;;;;;;;;;21.63;38.82;95863.50;6119954;19;2152;-60
2022/12/03 02:57:26;;;;;;;;;;;;;;;21.65;38.48;95856.94;6120385;19;1953;-62
2022/12/03 02:59:32;;;;;;;;;;;;;;;21.60;38.71;95854.03;6120760;19;1906;-66
2022/12/03 03:01:36;;;;;;;;;;;;;;;21.60;38.76;95847.84;6097257;19;2043;-67
2022/12/03 03:03:40;;;;;;;;;;;;;;;21.60;38.79;95848.66;6121606;19;1839;-65
2022/12/03 03:05:43;;;;;;;;;;;;;;;21.63;38.61;95856.28;6122442;19;2079;-66
2022/12/03 03:07:47;;;;;;;;;;;;;;;21.61;38.54;95861.00;6121496;19;2129;-66
2022/12/03 03:09:50;;;;;;;;;;;;;;;21.62;38.85;95862.66;6119014;19;1021;-66
2022/12/03 03:11:53;;;;;;;;;;;;;;;21.62;38.64;95864.50;6110580;19;2112;-66
2022/12/03 03:13:57;;;;;;;;;;;;;;;21.60;38.71;95858.53;6109382;19;2137;-66
2022/12/03 03:16:03;;;;;;;;;;;;;;;21.57;39.05;95853.56;6118684;19;2228;-66
2022/12/03 03:18:06;;;;;;;;;;;;;;;21.59;38.99;95852.34;6121351;19;1832;-66
2022/12/03 03:20:10;;;;;;;;;;;;;;;21.58;39.26;95856.06;6121022;19;2141;-66
2022/12/03 03:22:14;;;;;;;;;;;;;;;21.58;39.18;95856.06;6120413;19;1911;-66
2022/12/03 03:24:17;;;;;;;;;;;;;;;21.58;38.91;95853.38;6095384;19;1975;-66
2022/12/03 03:26:21;;;;;;;;;;;;;;;21.58;38.59;95855.25;6119404;19;1991;-65
2022/12/03 03:28:25;;;;;;;;;;;;;;;21.57;38.72;95850.91;6119989;19;1912;-66
2022/12/03 03:30:28;;;;;;;;;;;;;;;21.61;38.75;95855.66;6120676;19;2097;-66
2022/12/03 03:32:35;;;;;;;;;;;;;;;21.65;38.92;95845.38;6119579;19;2103;-67
2022/12/03 03:34:38;;;;;;;;;;;;;;;21.63;38.73;95858.97;6109736;19;2114;-67
2022/12/03 03:36:42;;;;;;;;;;;;;;;21.62;38.93;95848.47;6105270;19;2087;-66
2022/12/03 03:38:45;;;;;;;;;;;;;;;21.61;39.08;95857.50;6120536;19;2088;-66
2022/12/03 03:40:50;;;;;;;;;;;;;;;21.59;39.02;95851.53;6118539;19;2092;-66
2022/12/03 03:42:53;;;;;;;;;;;;;;;21.59;38.78;95860.38;6119590;19;1741;-66
2022/12/03 03:44:56;;;;;;;;;;;;;;;21.60;39.17;95858.53;6121278;19;2291;-66
2022/12/03 03:47:00;;;;;;;;;;;;;;;21.59;38.63;95863.03;6095728;19;2196;-66
2022/12/03 03:49:07;;;;;;;;;;;;;;;21.60;38.98;95861.22;6119505;19;2043;-66
2022/12/03 03:51:12;;;;;;;;;;;;;;;21.57;38.89;95864.25;6118186;19;1758;-66
2022/12/03 03:53:15;;;;;;;;;;;;;;;21.60;38.85;95874.59;6119458;19;1969;-65
2022/12/03 03:55:19;;;;;;;;;;;;;;;21.60;38.67;95870.06;6117822;19;1929;-65
2022/12/03 03:57:23;;;;;;;;;;;;;;;21.62;39.11;95865.31;6119383;19;1875;-66
2022/12/03 03:59:26;;;;;;;;;;;;;;;21.60;38.67;95877.28;6096732;19;2014;-64
2022/12/03 04:01:29;;;;;;;;;;;;;;;21.61;39.26;95877.06;6119012;19;1843;-65
2022/12/03 04:03:33;;;;;;;;;;;;;;;21.70;39.31;95872.38;6121060;19;1901;-65
2022/12/03 04:05:39;;;;;;;;;;;;;;;21.74;38.98;95872.78;6119225;19;2245;-65
2022/12/03 04:07:42;;;;;;;;;;;;;;;21.68;39.13;95866.38;6120456;19;2933;-65
2022/12/03 04:09:45;;;;;;;;;;;;;;;21.70;39.70;95863.53;6097712;19;2116;-64
2022/12/03 04:14:04;;;;;;;;;;;;;;;21.70;39.55;95883.06;6118202;19;1785;-65
2022/12/03 04:16:08;;;;;;;;;;;;;;;21.77;39.72;95885.78;6117791;19;1828;-68
2022/12/03 04:20:41;;;;;;;;;;;;;;;21.77;39.54;95875.91;6103899;19;2047;-65
2022/12/03 04:22:42;;;;;;;;;;;;;;;21.85;40.06;95882.94;6104567;19;1762;-68
2022/12/03 04:24:45;;;;;;;;;;;;;;;21.83;40.15;95896.53;6118344;19;2029;-67
2022/12/03 04:29:01;;;;;;;;;;;;;;;21.73;39.62;95895.22;6121694;19;1568;-64
2022/12/03 04:35:41;;;;;;;;;;;;;;;21.76;39.47;95894.81;6116914;19;2044;-65
2022/12/03 04:35:44;;;;;;;;;;;;;;;17.87;36.90;95885.59;6120314;19;1843;-65
2022/12/03 04:37:47;;;;;;;;;;;;;;;17.35;37.07;95893.19;6121191;19;2244;-67
2022/12/03 04:39:50;;;;;;;;;;;;;;;16.88;36.93;95896.59;6120989;19;2186;-66
2022/12/03 04:41:53;;;;;;;;;;;;;;;16.80;36.89;95907.22;6116744;19;1955;-67
2022/12/03 04:46:12;;;;;;;;;;;;;;;16.05;36.43;95908.91;6118021;19;1829;-65
2022/12/03 04:48:16;;;;;;;;;;;;;;;15.88;37.30;95912.50;6125095;19;1926;-66
2022/12/03 04:50:19;;;;;;;;;;;;;;;15.81;37.56;95909.63;6124143;19;2053;-65
2022/12/03 04:52:25;;;;;;;;;;;;;;;15.68;37.10;95914.53;6126920;19;1911;-65
2022/12/03 04:54:28;;;;;;;;;;;;;;;15.51;37.42;95912.78;6125238;19;1937;-65
2022/12/03 04:56:32;;;;;;;;;;;;;;;15.56;37.26;95906.03;6101533;19;2184;-65
2022/12/03 04:58:35;;;;;;;;;;;;;;;15.54;37.22;95900.06;6124530;19;1833;-66
2022/12/03 05:00:38;;;;;;;;;;;;;;;16.46;36.91;95903.66;6125246;19;2304;-65
2022/12/03 05:02:41;;;;;;;;;;;;;;;17.98;36.01;95900.34;6124858;19;1810;-64
2022/12/03 05:04:45;;;;;;;;;;;;;;;18.92;34.86;95895.75;6124488;19;1866;-64
2022/12/03 05:06:48;;;;;;;;;;;;;;;19.43;33.92;95893.25;6113988;19;2026;-64
2022/12/03 05:08:54;;;;;;;;;;;;;;;19.72;33.86;95901.44;6111235;19;2202;-65
2022/12/03 05:10:57;;;;;;;;;;;;;;;19.93;34.07;95893.53;6124162;19;2093;-69
2022/12/03 05:13:01;;;;;;;;;;;;;;;20.10;33.66;95894.16;6124712;19;2287;-64
2022/12/03 05:15:05;;;;;;;;;;;;;;;20.23;34.32;95898.81;6122993;19;2033;-64
2022/12/03 05:17:08;;;;;;;;;;;;;;;20.28;34.44;95901.75;6122881;19;2045;-64
2022/12/03 05:19:11;;;;;;;;;;;;;;;20.42;33.84;95913.44;6099804;19;1761;-64
2022/12/03 05:21:12;;;;;;;;;;;;;;;20.48;33.95;95912.69;6122301;19;2009;-64
2022/12/03 05:23:15;;;;;;;;;;;;;;;20.50;34.09;95905.31;6124263;19;1972;-64
2022/12/03 05:25:21;;;;;;;;;;;;;;;20.51;33.68;95917.63;6120979;19;2140;-64
2022/12/03 05:27:25;;;;;;;;;;;;;;;20.54;34.05;95912.78;6119330;19;1921;-64
2022/12/03 05:29:28;;;;;;;;;;;;;;;20.53;33.92;95915.63;6123999;19;1973;-64
2022/12/03 05:31:31;;;;;;;;;;;;;;;20.58;34.16;95915.88;6098344;19;2103;-64
2022/12/03 05:33:35;;;;;;;;;;;;;;;20.64;33.99;95909.78;6124463;19;1921;-64
2022/12/03 05:35:38;;;;;;;;;;;;;;;20.68;34.08;95908.38;6120025;19;1866;-64
2022/12/03 05:37:41;;;;;;;;;;;;;;;20.70;33.74;95902.84;6121708;19;1895;-65
2022/12/03 05:39:44;;;;;;;;;;;;;;;20.74;34.05;95907.63;6123983;19;1812;-64
2022/12/03 05:44:06;;;;;;;;;;;;;;;20.78;34.00;95924.09;6123204;19;1878;-64
2022/12/03 05:46:09;;;;;;;;;;;;;;;20.79;33.80;95925.72;6122816;19;2074;-64
2022/12/03 05:48:14;;;;;;;;;;;;;;;20.79;34.18;95925.72;6120202;19;2145;-65
2022/12/03 05:50:17;;;;;;;;;;;;;;;20.80;33.91;95924.72;6123909;19;1916;-64
2022/12/03 05:52:21;;;;;;;;;;;;;;;20.83;34.27;95926.16;6121253;19;1846;-63
2022/12/03 05:54:24;;;;;;;;;;;;;;;20.85;33.99;95929.47;6096668;19;2131;-64
2022/12/03 05:56:27;;;;;;;;;;;;;;;20.82;34.42;95921.84;6119684;19;1013;-65
2022/12/03 05:58:33;;;;;;;;;;;;;;;20.82;34.35;95924.53;6120228;19;1046;-64
2022/12/03 06:00:38;;;;;;;;;;;;;;;20.89;34.50;95930.78;6120606;19;1444;-64
2022/12/03 06:02:41;;;;;;;;;;;;;;;20.90;34.30;95922.56;6120060;19;1309;-66
2022/12/03 06:04:45;;;;;;;;;;;;;;;20.90;34.49;95924.41;6107691;19;1958;-65
2022/12/03 06:06:48;;;;;;;;;;;;;;;20.94;34.40;95925.66;6107615;19;1374;-65
2022/12/03 06:08:51;;;;;;;;;;;;;;;20.95;34.09;95936.16;6119948;19;1896;-65
2022/12/03 06:10:54;;;;;;;;;;;;;;;20.96;34.10;95942.34;6119278;19;1264;-65
2022/12/03 06:12:58;;;;;;;;;;;;;;;20.98;34.29;95948.31;6119706;19;1542;-65
2022/12/03 06:15:04;;;;;;;;;;;;;;;21.00;33.89;95943.63;6119455;19;1054;-65
2022/12/03 06:17:07;;;;;;;;;;;;;;;20.99;34.19;95941.94;6094836;19;1756;-65
2022/12/03 06:19:10;;;;;;;;;;;;;;;21.00;33.78;95946.28;6116115;19;991;-65
2022/12/03 06:21:13;;;;;;;;;;;;;;;20.99;34.20;95949.97;6116778;19;1636;-65
2022/12/03 06:23:17;;;;;;;;;;;;;;;20.99;34.19;95947.28;6118132;19;1065;-65
2022/12/03 06:25:20;;;;;;;;;;;;;;;21.04;34.03;95944.88;6116119;19;1144;-65
2022/12/03 06:27:23;;;;;;;;;;;;;;;21.04;33.93;95950.22;6104380;19;1429;-65
2022/12/03 06:29:27;;;;;;;;;;;;;;;21.04;33.73;95952.91;6104776;19;2132;-65
2022/12/03 06:31:33;;;;;;;;;;;;;;;21.01;34.14;95955.94;6118474;19;974;-64
2022/12/03 06:33:36;;;;;;;;;;;;;;;20.98;34.89;95959.00;6118541;19;1058;-63
2022/12/03 06:35:39;;;;;;;;;;;;;;;20.99;35.75;95952.63;6119535;19;1045;-64
2022/12/03 06:37:43;;;;;;;;;;;;;;;21.02;35.70;95955.75;6119077;19;1070;-62
2022/12/03 06:39:46;;;;;;;;;;;;;;;21.04;35.44;95955.56;6096583;19;2078;-62
2022/12/03 06:41:49;;;;;;;;;;;;;;;21.05;35.15;95957.22;6118036;19;1093;-62
2022/12/03 06:43:53;;;;;;;;;;;;;;;21.07;34.87;95952.50;6119039;19;1141;-62
2022/12/03 06:45:56;;;;;;;;;;;;;;;21.10;34.68;95953.97;6119156;19;987;-62
2022/12/03 06:48:02;;;;;;;;;;;;;;;21.06;34.42;95958.88;6119383;19;1857;-62
2022/12/03 06:50:06;;;;;;;;;;;;;;;21.08;34.13;95948.81;6107990;19;2120;-63
2022/12/03 06:52:09;;;;;;;;;;;;;;;21.03;34.06;95953.94;6107554;19;2174;-63
2022/12/03 06:54:12;;;;;;;;;;;;;;;21.09;34.16;95955.81;6118663;19;1459;-63
2022/12/03 06:56:16;;;;;;;;;;;;;;;21.11;33.87;95953.75;6117958;19;983;-63
2022/12/03 06:58:19;;;;;;;;;;;;;;;21.13;34.17;95959.75;6118237;19;1129;-62
2022/12/03 07:00:23;;;;;;;;;;;;;;;21.15;34.20;95954.22;6118966;19;2076;-63
2022/12/03 07:02:26;;;;;;;;;;;;;;;21.10;33.82;95960.13;6095714;19;1969;-62
2022/12/03 07:04:32;;;;;;;;;;;;;;;21.13;33.76;95950.91;6117835;19;1303;-62
2022/12/03 07:06:35;;;;;;;;;;;;;;;21.14;33.92;95955.22;6115773;19;1128;-62
2022/12/03 07:08:38;;;;;;;;;;;;;;;21.14;34.18;95953.41;6118147;19;1834;-63
2022/12/03 07:10:42;;;;;;;;;;;;;;;21.17;33.78;95949.50;6117177;19;1141;-65
2022/12/03 07:12:45;;;;;;;;;;;;;;;20.70;33.82;95965.09;6107022;19;1176;-63
2022/12/03 07:14:48;;;;;;;;;;;;;;;20.92;34.11;95973.13;6108780;19;1924;-63
2022/12/03 07:16:52;;;;;;;;;;;;;;;21.07;34.81;95965.88;6119568;19;1959;-63
2022/12/03 07:18:55;;;;;;;;;;;;;;;21.11;34.78;95968.97;6117907;19;1350;-63
2022/12/03 07:21:01;;;;;;;;;;;;;;;21.09;34.94;95969.19;6118214;19;1427;-63
2022/12/03 07:23:04;;;;;;;;;;;;;;;21.12;34.63;95967.97;6119634;19;1117;-63
2022/12/03 07:25:08;;;;;;;;;;;;;;;21.14;34.57;95971.28;6094090;19;1876;-63
2022/12/03 07:27:11;;;;;;;;;;;;;;;21.16;34.54;95970.06;6118091;19;967;-63
2022/12/03 07:29:15;;;;;;;;;;;;;;;21.17;35.15;95971.75;6117798;19;1846;-63
2022/12/03 07:31:18;;;;;;;;;;;;;;;21.16;34.82;95972.72;6118329;19;1061;-63
2022/12/03 07:33:21;;;;;;;;;;;;;;;21.18;35.24;95978.75;6118748;19;1019;-63
2022/12/03 07:35:25;;;;;;;;;;;;;;;21.22;34.71;95980.00;6106913;19;1306;-63
2022/12/03 07:37:31;;;;;;;;;;;;;;;21.20;34.79;95971.38;6105981;19;2041;-63
2022/12/03 07:39:34;;;;;;;;;;;;;;;21.20;35.49;95960.69;6117276;19;1083;-63
2022/12/03 07:41:37;;;;;;;;;;;;;;;21.20;35.63;95979.41;6118641;19;1207;-63
2022/12/03 07:43:41;;;;;;;;;;;;;;;21.23;35.35;95975.53;6119362;19;1041;-64
2022/12/03 07:45:44;;;;;;;;;;;;;;;21.20;35.52;95976.72;6117445;19;1062;-64
2022/12/03 07:47:47;;;;;;;;;;;;;;;21.21;35.13;95973.03;6093522;19;1571;-63
2022/12/03 07:49:50;;;;;;;;;;;;;;;21.23;34.83;95975.53;6117366;19;1849;-64
2022/12/03 07:51:56;;;;;;;;;;;;;;;21.27;34.32;95986.66;6117372;19;1633;-64
2022/12/03 07:54:01;;;;;;;;;;;;;;;21.23;34.27;95980.88;6121066;19;1833;-64
2022/12/03 07:56:05;;;;;;;;;;;;;;;21.23;34.41;95987.03;6120148;19;2761;-63
2022/12/03 07:58:08;;;;;;;;;;;;;;;21.25;34.48;95981.47;6105455;19;1270;-64
2022/12/03 08:00:13;;;;;;;;;;;;;;;21.22;34.18;95982.69;6105292;19;2066;-63
2022/12/03 08:02:16;;;;;;;;;;;;;;;21.27;34.51;95989.31;6117978;19;1888;-63
2022/12/03 08:04:20;;;;;;;;;;;;;;;21.20;34.57;95982.06;6118402;19;2079;-64
2022/12/03 08:06:23;;;;;;;;;;;;;;;21.24;34.15;95985.19;6119470;19;2115;-64
2022/12/03 08:08:26;;;;;;;;;;;;;;;21.27;34.01;95984.78;6118453;19;1865;-64
2022/12/03 09:19:10;;;;;;;;;;;;;;;20.84;36.25;96002.63;6144559;19;1851;-64
2022/12/03 09:21:13;;;;;;;;;;;;;;;20.93;36.40;96007.66;6145906;19;1843;-66
2022/12/03 09:23:17;;;;;;;;;;;;;;;20.99;36.32;96003.41;6130247;19;1581;-65
2022/12/03 09:25:20;;;;;;;;;;;;;;;21.05;36.38;95999.16;6135028;19;1824;-65
2022/12/03 09:27:24;;;;;;;;;;;;;;;21.10;36.04;96005.56;6149420;19;1676;-65
2022/12/03 09:29:27;;;;;;;;;;;;;;;21.11;36.29;96003.72;6147455;19;1398;-64
2022/12/03 09:31:31;;;;;;;;;;;;;;;21.13;36.26;95996.34;6147954;19;1475;-65
2022/12/03 09:33:35;;;;;;;;;;;;;;;21.14;36.19;95996.16;6151414;19;1754;-63
2022/12/03 09:35:40;;;;;;;;;;;;;;;21.18;36.05;95994.78;6118899;19;2007;-64
2022/12/03 09:37:44;;;;;;;;;;;;;;;21.19;35.91;95995.59;6144618;19;2128;-63
2022/12/03 09:39:47;;;;;;;;;;;;;;;21.20;35.82;95992.75;6144009;19;1658;-65
2022/12/03 09:41:51;;;;;;;;;;;;;;;21.27;35.91;95997.34;6147390;19;1317;-65
2022/12/03 09:43:55;;;;;;;;;;;;;;;21.27;36.11;95989.31;6146356;19;1645;-64
2022/12/03 09:45:58;;;;;;;;;;;;;;;21.28;36.10;95996.31;6134683;19;1398;-64
2022/12/03 09:48:06;;;;;;;;;;;;;;;21.26;36.02;95991.16;6129755;19;1967;-64
2022/12/03 09:50:17;;;;;;;;;;;;;;;21.29;35.87;95996.13;6145298;19;1735;-63
2022/12/03 09:52:25;;;;;;;;;;;;;;;21.32;35.58;95985.03;6145398;19;1824;-67
2022/12/03 09:54:32;;;;;;;;;;;;;;;21.37;35.65;95992.47;6146480;19;3077;-69
2022/12/03 09:56:37;;;;;;;;;;;;;;;21.33;35.97;95986.69;6144503;19;2194;-64
2022/12/03 09:58:41;;;;;;;;;;;;;;;21.31;36.16;95993.25;6115967;19;2019;-64
2022/12/03 10:00:48;;;;;;;;;;;;;;;21.33;36.00;95980.53;6144218;19;2597;-65
2022/12/03 10:02:53;;;;;;;;;;;;;;;21.31;35.83;95977.22;6142107;19;1547;-64
2022/12/03 10:04:57;;;;;;;;;;;;;;;21.35;35.96;95981.16;6142886;19;1894;-64
2022/12/03 10:07:01;;;;;;;;;;;;;;;21.35;36.30;95975.81;6142366;19;1568;-65
2022/12/03 10:09:06;;;;;;;;;;;;;;;21.35;35.82;95978.50;6132560;19;1963;-64
2022/12/03 10:11:12;;;;;;;;;;;;;;;21.38;35.90;95967.41;6135109;19;2054;-65
2022/12/03 10:13:20;;;;;;;;;;;;;;;21.39;35.68;95966.38;6144349;19;1888;-64
2022/12/03 10:15:24;;;;;;;;;;;;;;;21.38;35.42;95964.72;6146553;19;1591;-64
2022/12/03 10:17:31;;;;;;;;;;;;;;;21.36;35.35;95967.59;6141996;19;1842;-64
2022/12/03 10:42:17;;;;;;;;;;;;;;;21.33;35.54;95954.59;6105075;19;1676;-65
2022/12/03 10:44:24;;;;;;;;;;;;;;;21.35;35.13;95959.78;6110070;19;1551;-65
2022/12/03 10:46:27;;;;;;;;;;;;;;;21.36;35.04;95953.41;6120381;19;1744;-64
2022/12/03 10:48:31;;;;;;;;;;;;;;;21.37;34.94;95955.88;6122486;19;1720;-65
2022/12/03 10:50:34;;;;;;;;;;;;;;;21.35;35.43;95951.75;6122662;19;1382;-63
2022/12/03 10:52:38;;;;;;;;;;;;;;;21.36;35.32;95946.19;6120697;19;1843;-64
2022/12/03 10:54:41;;;;;;;;;;;;;;;21.37;34.96;95944.34;6093980;19;1545;-65
2022/12/03 10:56:44;;;;;;;;;;;;;;;21.37;35.20;95941.66;6122890;19;1748;-64
2022/12/03 10:58:50;;;;;;;;;;;;;;;21.37;35.44;95944.34;6116593;19;1864;-64
2022/12/03 11:00:55;;;;;;;;;;;;;;;21.35;35.60;95939.22;6122334;19;1448;-64
2022/12/03 11:02:58;;;;;;;;;;;;;;;21.37;36.00;95939.00;6122562;19;1462;-65
2022/12/03 11:05:02;;;;;;;;;;;;;;;21.46;35.85;95927.16;6107209;19;1368;-64
2022/12/03 11:07:13;;;;;;;;;;;;;;;21.51;35.49;95929.22;6106193;19;1740;-64
2022/12/03 11:09:20;;;;;;;;;;;;;;;21.58;35.51;95930.94;6117283;19;1824;-65
2022/12/03 11:11:25;;;;;;;;;;;;;;;21.70;35.28;95923.19;6119186;19;996;-64
2022/12/03 11:13:29;;;;;;;;;;;;;;;21.76;35.14;95927.75;6119073;19;2120;-64
2022/12/03 11:15:46;;;;;;;;;;;;;;;21.79;35.50;95929.22;6117880;19;1700;-64
2022/12/03 11:17:51;;;;;;;;;;;;;;;21.81;35.59;95933.34;6100836;19;1860;-65
2022/12/03 11:19:54;;;;;;;;;;;;;;;21.90;35.31;95937.50;6123112;19;1830;-65
2022/12/03 11:22:13;;;;;;;;;;;;;;;21.91;35.16;95933.00;6117078;19;1754;-65
2022/12/03 11:24:18;;;;;;;;;;;;;;;21.95;35.19;95934.28;6103417;19;1590;-64
2022/12/03 11:26:43;;;;;;;;;;;;;;;21.95;35.26;95931.59;6090705;19;1852;-65
2022/12/03 11:28:55;;;;;;;;;;;;;;;21.97;35.38;95932.25;6064751;19;2059;-64
2022/12/03 11:31:07;;;;;;;;;;;;;;;21.97;35.44;95932.25;6096539;19;1065;-64
2022/12/03 11:33:24;;;;;;;;;;;;;;;21.99;35.46;95932.03;6092637;19;1609;-65
2022/12/03 11:35:28;;;;;;;;;;;;;;;21.98;36.02;95925.84;6096289;19;1810;-64
2022/12/03 11:37:32;;;;;;;;;;;;;;;21.92;35.98;95926.63;6094060;19;1855;-64
2022/12/03 11:39:50;;;;;;;;;;;;;;;21.98;35.93;95920.50;6064526;19;1669;-70
2022/12/03 11:42:08;;;;;;;;;;;;;;;21.95;35.45;95923.56;6095107;19;1048;-71
2022/12/03 11:44:29;;;;;;;;;;;;;;;21.94;35.49;95913.88;6091698;19;1809;-69
2022/12/03 11:46:44;;;;;;;;;;;;;;;21.96;35.94;95911.84;6085032;19;1777;-68
2022/12/03 11:48:54;;;;;;;;;;;;;;;21.99;35.96;95913.28;6091998;19;1531;-70
2022/12/03 11:51:01;;;;;;;;;;;;;;;21.98;35.77;95915.16;6065472;19;1156;-70
2022/12/03 11:53:10;;;;;;;;;;;;;;;21.98;35.84;95915.16;6090970;19;1667;-71
2022/12/03 11:55:17;;;;;;;;;;;;;;;21.98;35.90;95915.16;6092856;19;1467;-72
2022/12/03 11:57:27;;;;;;;;;;;;;;;21.91;35.89;95903.56;6091743;19;1855;-65
2022/12/03 11:59:30;;;;;;;;;;;;;;;21.96;36.13;95905.66;6090628;19;1124;-65
2022/12/03 12:01:34;;;;;;;;;;;;;;;21.93;36.08;95909.53;6078476;19;1736;-70
2022/12/03 12:03:44;;;;;;;;;;;;;;;21.95;36.17;95909.34;6079522;19;1822;-65
2022/12/03 12:05:47;;;;;;;;;;;;;;;21.88;35.92;95914.63;6094902;19;1810;-64
2022/12/03 12:07:51;;;;;;;;;;;;;;;21.86;35.92;95911.34;6093907;19;1509;-65
2022/12/03 12:09:55;;;;;;;;;;;;;;;21.81;36.06;95914.63;6091732;19;1282;-65
2022/12/03 12:12:18;;;;;;;;;;;;;;;21.81;35.75;95903.09;6090226;19;1705;-64
2022/12/03 12:14:27;;;;;;;;;;;;;;;21.80;36.07;95909.47;6065424;19;1705;-63
2022/12/03 12:16:37;;;;;;;;;;;;;;;21.78;35.82;95907.00;6092462;19;1613;-65
2022/12/03 12:18:45;;;;;;;;;;;;;;;21.84;35.77;95902.69;6102272;19;2166;-64
2022/12/03 12:20:48;;;;;;;;;;;;;;;21.79;35.90;95905.13;6094467;19;1757;-63
2022/12/03 12:22:53;;;;;;;;;;;;;;;21.77;36.26;95907.16;6088877;19;1025;-64
2022/12/03 12:24:57;;;;;;;;;;;;;;;21.77;35.86;95901.81;6061279;19;1768;-63
2022/12/03 12:27:02;;;;;;;;;;;;;;;21.77;36.32;95901.81;6091894;19;1817;-65
2022/12/03 12:29:05;;;;;;;;;;;;;;;21.78;35.93;95903.50;6090639;19;1058;-65
2022/12/03 12:31:11;;;;;;;;;;;;;;;21.72;36.53;95894.41;6093746;19;1715;-66
2022/12/03 12:33:21;;;;;;;;;;;;;;;21.75;36.53;95898.53;6090772;19;1004;-67
2022/12/03 12:35:28;;;;;;;;;;;;;;;21.74;36.53;95897.72;6080283;19;1366;-65
2022/12/03 12:37:35;;;;;;;;;;;;;;;21.71;36.52;95897.25;6077823;19;2007;-66
2022/12/03 12:39:39;;;;;;;;;;;;;;;21.78;36.26;95898.16;6091013;19;1022;-66
2022/12/03 12:41:42;;;;;;;;;;;;;;;21.72;36.48;95902.44;6093356;19;1695;-65
2022/12/03 12:43:45;;;;;;;;;;;;;;;21.71;36.37;95902.63;6090849;19;1046;-66
2022/12/03 12:45:49;;;;;;;;;;;;;;;21.65;36.30;95902.41;6092260;19;1019;-66
2022/12/03 12:47:59;;;;;;;;;;;;;;;21.67;36.63;95897.66;6063854;19;1807;-64